createdAt,value
2019-03-10T00:00:30.333Z,100851.08
2019-03-10T00:02:58.906Z,100851.50
2019-03-10T00:05:27.103Z,100842.52
2019-03-10T00:07:55.387Z,100845.52
2019-03-10T00:10:24.290Z,100839.94
2019-03-10T00:12:52.540Z,100834.34
2019-03-10T00:15:20.754Z,100831.61
2019-03-10T00:17:48.967Z,100828.05
2019-03-10T00:20:17.515Z,100829.87
2019-03-10T00:22:45.685Z,100822.44
2019-03-10T00:25:14.013Z,100818.45
2019-03-10T00:27:42.274Z,100812.95
2019-03-10T00:30:13.052Z,100811.89
2019-03-10T00:32:41.217Z,100812.62
2019-03-10T00:35:09.650Z,100806.77
2019-03-10T00:37:37.841Z,100802.83
2019-03-10T00:40:31.173Z,100805.55
2019-03-10T00:43:05.517Z,100802.20
2019-03-10T00:46:08.537Z,100793.61
2019-03-10T00:49:05.066Z,100790.77
2019-03-10T00:51:42.431Z,100778.82
2019-03-10T00:54:10.626Z,100779.48
2019-03-10T00:56:38.793Z,100779.53
2019-03-10T00:59:06.985Z,100775.99
2019-03-10T01:01:35.165Z,100780.26
2019-03-10T01:04:03.359Z,100774.11
2019-03-10T01:06:31.525Z,100770.94
2019-03-10T01:08:59.720Z,100774.53
2019-03-10T01:11:28.373Z,100775.94
2019-03-10T01:13:56.562Z,100771.19
2019-03-10T01:16:25.025Z,100766.63
2019-03-10T01:18:55.029Z,100763.12
2019-03-10T01:21:23.785Z,100762.34
2019-03-10T01:23:52.262Z,100740.84
2019-03-10T01:26:20.518Z,100737.55
2019-03-10T01:28:48.717Z,100726.70
2019-03-10T01:31:41.361Z,100722.25
2019-03-10T01:34:18.397Z,100711.61
2019-03-10T01:36:46.568Z,100710.55
2019-03-10T01:39:14.794Z,100703.33
2019-03-10T01:41:42.966Z,100694.38
2019-03-10T01:44:11.166Z,100674.20
2019-03-10T01:46:39.611Z,100663.52
2019-03-10T01:49:07.805Z,100654.22
2019-03-10T01:51:35.981Z,100645.20
2019-03-10T01:54:04.203Z,100636.61
2019-03-10T01:56:32.443Z,100624.42
2019-03-10T01:59:00.613Z,100619.33
2019-03-10T02:01:28.789Z,100611.37
2019-03-10T02:03:56.971Z,100598.97
2019-03-10T02:06:25.137Z,100598.27
2019-03-10T02:08:53.348Z,100588.82
2019-03-10T02:11:21.511Z,100578.19
2019-03-10T02:13:49.680Z,100560.73
2019-03-10T02:16:17.877Z,100549.56
2019-03-10T02:18:46.045Z,100543.11
2019-03-10T02:21:14.546Z,100539.54
2019-03-10T02:23:42.718Z,100528.87
2019-03-10T02:26:10.887Z,100520.94
2019-03-10T02:28:39.370Z,100521.19
2019-03-10T02:31:07.544Z,100516.13
2019-03-10T02:33:35.742Z,100502.91
2019-03-10T02:36:04.203Z,100500.89
2019-03-10T02:38:32.397Z,100497.94
2019-03-10T02:41:00.581Z,100488.92
2019-03-10T02:43:28.757Z,100480.39
2019-03-10T02:45:56.928Z,100475.01
2019-03-10T02:48:25.476Z,100465.39
2019-03-10T02:50:53.650Z,100449.50
2019-03-10T02:53:21.847Z,100434.95
2019-03-10T02:55:50.014Z,100427.00
2019-03-10T02:58:18.205Z,100426.48
2019-03-10T03:00:46.400Z,100429.65
2019-03-10T03:03:14.598Z,100428.38
2019-03-10T03:05:42.774Z,100426.48
2019-03-10T03:08:10.973Z,100427.34
2019-03-10T03:10:39.448Z,100423.52
2019-03-10T03:13:07.650Z,100411.30
2019-03-10T03:15:35.826Z,100394.16
2019-03-10T03:18:04.009Z,100390.88
2019-03-10T03:20:32.199Z,100381.36
2019-03-10T03:23:00.715Z,100375.72
2019-03-10T03:25:28.886Z,100374.54
2019-03-10T03:27:57.097Z,100368.19
2019-03-10T03:30:25.704Z,100359.45
2019-03-10T03:32:53.908Z,100349.63
2019-03-10T03:35:52.145Z,100345.28
2019-03-10T03:38:26.035Z,100338.22
2019-03-10T03:41:14.432Z,100326.51
2019-03-10T03:43:42.711Z,100318.44
2019-03-10T03:46:10.933Z,100316.75
2019-03-10T03:48:39.163Z,100314.78
2019-03-10T03:51:07.473Z,100310.28
2019-03-10T03:53:35.692Z,100309.66
2019-03-10T03:56:03.877Z,100300.09
2019-03-10T03:58:32.378Z,100293.44
2019-03-10T04:01:04.628Z,100288.13
2019-03-10T04:03:32.819Z,100284.14
2019-03-10T04:06:01.027Z,100283.27
2019-03-10T04:08:29.209Z,100274.00
2019-03-10T04:10:57.751Z,100266.20
2019-03-10T04:13:26.246Z,100256.10
2019-03-10T04:15:54.891Z,100245.33
2019-03-10T04:18:23.061Z,100228.23
2019-03-10T04:20:51.230Z,100226.06
2019-03-10T04:23:19.430Z,100221.25
2019-03-10T04:25:47.678Z,100217.70
2019-03-10T04:28:15.870Z,100218.73
2019-03-10T04:30:44.071Z,100217.63
2019-03-10T04:33:12.254Z,100209.64
2019-03-10T04:35:40.437Z,100204.41
2019-03-10T04:38:08.878Z,100200.77
2019-03-10T04:40:37.082Z,100195.34
2019-03-10T04:43:05.321Z,100188.80
2019-03-10T04:45:33.502Z,100176.98
2019-03-10T04:48:01.688Z,100170.86
2019-03-10T04:50:29.854Z,100158.81
2019-03-10T04:52:58.051Z,100157.72
2019-03-10T04:55:44.386Z,100142.31
2019-03-10T04:58:14.228Z,100133.13
2019-03-10T05:00:44.038Z,100119.05
2019-03-10T05:03:12.229Z,100109.56
2019-03-10T05:05:40.478Z,100091.48
2019-03-10T05:08:08.668Z,100085.55
2019-03-10T05:10:36.838Z,100071.28
2019-03-10T05:13:05.314Z,100054.61
2019-03-10T05:15:33.496Z,100047.55
2019-03-10T05:18:01.675Z,100033.59
2019-03-10T05:20:29.861Z,100013.92
2019-03-10T05:23:29.869Z,100007.86
2019-03-10T05:25:58.940Z,99990.88
2019-03-10T05:28:28.455Z,99974.84
2019-03-10T05:30:56.648Z,99956.75
2019-03-10T05:33:24.852Z,99947.65
2019-03-10T05:35:53.034Z,99945.67
2019-03-10T05:38:21.192Z,99952.64
2019-03-10T05:40:49.402Z,99948.77
2019-03-10T05:43:17.565Z,99931.77
2019-03-10T05:45:45.767Z,99917.77
2019-03-10T05:48:13.937Z,99913.80
2019-03-10T05:50:42.127Z,99898.31
2019-03-10T05:53:10.589Z,99896.31
2019-03-10T05:55:38.785Z,99889.98
2019-03-10T05:58:06.966Z,99897.17
2019-03-10T06:00:42.787Z,99877.48
2019-03-10T06:03:05.343Z,99868.77
2019-03-10T06:05:33.542Z,99873.47
2019-03-10T06:08:01.727Z,99854.63
2019-03-10T06:10:29.898Z,99851.56
2019-03-10T06:12:58.090Z,99834.79
2019-03-10T06:15:26.275Z,99835.27
2019-03-10T06:17:54.483Z,99828.18
2019-03-10T06:20:22.670Z,99811.55
2019-03-10T06:22:50.943Z,99773.90
2019-03-10T06:25:19.115Z,99750.20
2019-03-10T06:27:47.297Z,99788.45
2019-03-10T06:30:15.516Z,99801.69
2019-03-10T06:32:43.688Z,99789.05
2019-03-10T06:35:11.858Z,99778.28
2019-03-10T06:37:40.479Z,99757.06
2019-03-10T06:40:08.847Z,99710.42
2019-03-10T06:42:37.098Z,99685.81
2019-03-10T06:45:06.715Z,99662.31
2019-03-10T06:47:34.915Z,99687.16
2019-03-10T06:50:04.106Z,99730.45
2019-03-10T06:52:32.308Z,99722.75
2019-03-10T06:55:00.514Z,99713.48
2019-03-10T06:57:28.692Z,99705.58
2019-03-10T06:59:56.886Z,99683.67
2019-03-10T07:02:25.086Z,99653.52
2019-03-10T07:04:53.556Z,99658.48
2019-03-10T07:07:21.731Z,99640.44
2019-03-10T07:09:49.915Z,99648.33
2019-03-10T07:12:18.116Z,99631.51
2019-03-10T07:14:46.307Z,99649.33
2019-03-10T07:17:14.504Z,99658.22
2019-03-10T07:19:42.728Z,99641.30
2019-03-10T07:22:11.171Z,99627.00
2019-03-10T07:24:39.379Z,99618.47
2019-03-10T07:27:07.559Z,99618.86
2019-03-10T07:29:37.381Z,99610.39
2019-03-10T07:32:08.975Z,99597.61
2019-03-10T07:37:39.072Z,99595.50
2019-03-10T07:40:09.037Z,99590.66
2019-03-10T07:42:41.811Z,99586.91
2019-03-10T07:45:11.689Z,99590.50
2019-03-10T07:47:41.859Z,99593.06
2019-03-10T07:50:14.947Z,99586.62
2019-03-10T07:52:44.818Z,99573.27
2019-03-10T07:55:26.386Z,99576.09
2019-03-10T07:57:56.202Z,99554.19
2019-03-10T08:00:35.159Z,99562.20
2019-03-10T08:03:05.010Z,99555.63
2019-03-10T08:05:51.093Z,99555.16
2019-03-10T08:08:37.255Z,99554.97
2019-03-10T08:11:23.213Z,99550.42
2019-03-10T08:13:58.773Z,99534.64
2019-03-10T08:16:28.603Z,99543.47
2019-03-10T08:19:01.404Z,99536.81
2019-03-10T08:21:47.437Z,99542.25
2019-03-10T08:24:19.689Z,99550.45
2019-03-10T08:27:01.597Z,99544.84
2019-03-10T08:29:43.614Z,99528.91
2019-03-10T08:32:19.597Z,99535.22
2019-03-10T08:34:52.334Z,99544.66
2019-03-10T08:37:22.206Z,99543.30
2019-03-10T08:40:09.881Z,99537.82
2019-03-10T08:42:42.588Z,99527.90
2019-03-10T08:45:24.533Z,99539.80
2019-03-10T08:48:00.139Z,99540.40
2019-03-10T08:50:39.210Z,99541.31
2019-03-10T08:53:20.790Z,99552.43
2019-03-10T08:55:59.774Z,99543.02
2019-03-10T08:58:29.676Z,99550.66
2019-03-10T09:00:59.498Z,99533.27
2019-03-10T09:03:41.314Z,99532.47
2019-03-10T09:06:11.186Z,99539.36
2019-03-10T09:08:40.994Z,99535.42
2019-03-10T09:11:26.985Z,99518.45
2019-03-10T09:14:11.950Z,99531.48
2019-03-10T09:16:47.879Z,99536.06
2019-03-10T09:19:20.727Z,99541.42
2019-03-10T09:21:56.031Z,99537.95
2019-03-10T09:24:25.857Z,99517.73
2019-03-10T09:27:01.912Z,99515.63
2019-03-10T09:29:37.632Z,99519.51
2019-03-10T09:32:07.474Z,99504.80
2019-03-10T09:34:44.361Z,99507.52
2019-03-10T09:37:14.181Z,99507.84
2019-03-10T09:39:44.000Z,99513.17
2019-03-10T09:42:29.780Z,99501.19
2019-03-10T09:45:05.339Z,99503.53
2019-03-10T09:47:50.186Z,99494.31
2019-03-10T09:50:24.576Z,99472.24
2019-03-10T09:53:00.181Z,99481.09
2019-03-10T09:55:45.017Z,99479.51
2019-03-10T09:58:23.301Z,99465.70
2019-03-10T10:00:58.836Z,99455.37
2019-03-10T10:03:31.371Z,99458.08
2019-03-10T10:06:17.730Z,99449.77
2019-03-10T10:08:53.550Z,99455.61
2019-03-10T10:11:32.581Z,99469.39
2019-03-10T10:14:08.344Z,99473.25
2019-03-10T10:16:40.866Z,99453.94
2019-03-10T10:19:19.646Z,99455.20
2019-03-10T10:21:49.449Z,99393.36
2019-03-10T10:24:25.469Z,99451.28
2019-03-10T10:27:04.257Z,99440.89
2019-03-10T10:29:43.297Z,99436.09
2019-03-10T10:32:15.790Z,99424.45
2019-03-10T10:34:45.921Z,99440.87
2019-03-10T10:37:35.512Z,99456.57
2019-03-10T10:40:16.375Z,99463.10
2019-03-10T10:42:51.691Z,99463.19
2019-03-10T10:45:21.512Z,99465.88
2019-03-10T10:47:57.755Z,99476.41
2019-03-10T10:50:43.512Z,99472.67
2019-03-10T10:53:21.377Z,99470.11
2019-03-10T10:56:05.979Z,99473.30
2019-03-10T10:58:51.404Z,99492.17
2019-03-10T11:01:37.471Z,99499.58
2019-03-10T11:04:08.916Z,99489.98
2019-03-10T11:06:50.803Z,99493.28
2019-03-10T11:09:26.687Z,99494.20
2019-03-10T11:12:05.394Z,99463.39
2019-03-10T11:14:47.559Z,99447.51
2019-03-10T11:17:33.796Z,99454.45
2019-03-10T11:20:10.174Z,99420.16
2019-03-10T11:22:53.901Z,99437.30
2019-03-10T11:25:23.998Z,99438.19
2019-03-10T11:27:54.217Z,99421.83
2019-03-10T11:30:40.293Z,99432.08
2019-03-10T11:33:10.107Z,99403.85
2019-03-10T11:35:42.630Z,99394.58
2019-03-10T11:38:15.454Z,99416.92
2019-03-10T11:41:01.969Z,99377.52
2019-03-10T11:43:37.734Z,99395.97
2019-03-10T11:46:30.670Z,99391.24
2019-03-10T11:49:18.892Z,99367.13
2019-03-10T11:52:05.047Z,99374.44
2019-03-10T11:54:49.710Z,99397.20
2019-03-10T11:57:28.630Z,99402.99
2019-03-10T12:00:10.769Z,99422.52
2019-03-10T12:02:46.413Z,99425.95
2019-03-10T12:05:24.879Z,99435.02
2019-03-10T12:07:57.647Z,99432.52
2019-03-10T12:10:25.899Z,99430.30
2019-03-10T12:12:54.081Z,99431.42
2019-03-10T12:15:22.334Z,99457.33
2019-03-10T12:17:50.859Z,99440.91
2019-03-10T12:20:19.025Z,99431.77
2019-03-10T12:22:47.205Z,99449.50
2019-03-10T12:25:15.782Z,99430.92
2019-03-10T12:27:43.968Z,99436.66
2019-03-10T12:30:14.877Z,99447.41
2019-03-10T12:32:43.146Z,99460.63
2019-03-10T12:35:11.592Z,99438.52
2019-03-10T12:37:39.929Z,99458.56
2019-03-10T12:40:10.570Z,99474.92
2019-03-10T12:42:38.750Z,99465.75
2019-03-10T12:45:09.284Z,99478.52
2019-03-10T12:47:37.442Z,99482.37
2019-03-10T12:50:11.158Z,99493.72
2019-03-10T12:52:39.360Z,99497.63
2019-03-10T12:55:09.197Z,99533.69
2019-03-10T12:57:37.473Z,99528.34
2019-03-10T13:00:13.368Z,99529.13
2019-03-10T13:02:41.224Z,99558.98
2019-03-10T13:05:10.334Z,99512.15
2019-03-10T13:07:38.539Z,99506.41
2019-03-10T13:10:07.077Z,99510.59
2019-03-10T13:12:36.354Z,99509.30
2019-03-10T13:15:06.836Z,99546.19
2019-03-10T13:17:35.293Z,99514.89
2019-03-10T13:20:05.133Z,99518.39
2019-03-10T13:22:33.771Z,99526.77
2019-03-10T13:25:01.964Z,99535.45
2019-03-10T13:27:30.139Z,99544.37
2019-03-10T13:29:58.331Z,99546.33
2019-03-10T13:32:26.529Z,99533.16
2019-03-10T13:34:54.735Z,99539.13
2019-03-10T13:37:22.902Z,99567.97
2019-03-10T13:39:51.086Z,99529.28
2019-03-10T13:42:19.663Z,99534.31
2019-03-10T13:44:47.858Z,99532.28
2019-03-10T13:47:16.091Z,99546.21
2019-03-10T13:49:45.523Z,99550.48
2019-03-10T13:52:13.707Z,99542.74
2019-03-10T13:54:41.902Z,99575.67
2019-03-10T13:57:10.077Z,99590.83
2019-03-10T13:59:38.280Z,99582.73
2019-03-10T14:02:06.803Z,99612.18
2019-03-10T14:04:35.000Z,99615.66
2019-03-10T14:07:03.177Z,99620.31
2019-03-10T14:09:31.381Z,99630.09
2019-03-10T14:11:59.558Z,99635.26
2019-03-10T14:14:28.086Z,99640.41
2019-03-10T14:16:56.252Z,99650.54
2019-03-10T14:19:24.458Z,99651.81
2019-03-10T14:21:52.642Z,99680.97
2019-03-10T14:24:21.171Z,99697.58
2019-03-10T14:26:49.346Z,99703.73
2019-03-10T14:29:17.697Z,99699.41
2019-03-10T14:31:45.987Z,99701.63
2019-03-10T14:34:14.189Z,99716.91
2019-03-10T14:36:42.741Z,99736.80
2019-03-10T14:39:11.120Z,99746.78
2019-03-10T14:41:39.697Z,99749.08
2019-03-10T14:44:07.952Z,99762.52
2019-03-10T14:46:36.134Z,99786.03
2019-03-10T14:49:04.414Z,99824.61
2019-03-10T14:51:32.628Z,99782.47
2019-03-10T14:54:00.870Z,99799.83
2019-03-10T14:56:30.084Z,99790.05
2019-03-10T14:58:58.279Z,99806.56
2019-03-10T15:01:26.442Z,99823.03
2019-03-10T15:03:55.002Z,99829.73
2019-03-10T15:06:23.194Z,99823.98
2019-03-10T15:08:51.677Z,99833.63
2019-03-10T15:11:21.507Z,99861.45
2019-03-10T15:13:49.687Z,99862.50
2019-03-10T15:16:18.531Z,99851.28
2019-03-10T15:18:46.698Z,99882.62
2019-03-10T15:21:15.291Z,99898.88
2019-03-10T15:23:43.458Z,99862.16
2019-03-10T15:26:11.694Z,99919.73
2019-03-10T15:28:39.920Z,99911.56
2019-03-10T15:31:08.110Z,99924.19
2019-03-10T15:33:36.315Z,99922.36
2019-03-10T15:36:04.492Z,99930.70
2019-03-10T15:38:33.092Z,99938.09
2019-03-10T15:41:01.321Z,99943.36
2019-03-10T15:43:29.513Z,99968.81
2019-03-10T15:46:01.315Z,99956.67
2019-03-10T15:48:29.894Z,99971.78
2019-03-10T15:50:58.395Z,99991.03
2019-03-10T15:53:26.562Z,99995.83
2019-03-10T15:55:55.030Z,100009.16
2019-03-10T15:58:23.345Z,100017.31
2019-03-10T16:00:51.519Z,100037.23
2019-03-10T16:03:19.726Z,100060.96
2019-03-10T16:05:47.900Z,100044.25
2019-03-10T16:08:16.120Z,100019.45
2019-03-10T16:10:45.126Z,100075.13
2019-03-10T16:13:13.675Z,100077.47
2019-03-10T16:15:41.891Z,100099.00
2019-03-10T16:18:10.105Z,100101.75
2019-03-10T16:20:38.603Z,100121.14
2019-03-10T16:23:06.806Z,100125.02
2019-03-10T16:25:35.362Z,100150.41
2019-03-10T16:28:03.574Z,100168.47
2019-03-10T16:30:31.765Z,100181.58
2019-03-10T16:32:59.961Z,100150.52
2019-03-10T16:35:28.458Z,100206.64
2019-03-10T16:37:56.683Z,100206.63
2019-03-10T16:40:24.911Z,100213.16
2019-03-10T16:42:53.107Z,100214.05
2019-03-10T16:45:28.131Z,100231.72
2019-03-10T16:47:57.642Z,100234.69
2019-03-10T16:50:28.055Z,100265.09
2019-03-10T16:52:56.284Z,100271.00
2019-03-10T16:55:24.567Z,100252.48
2019-03-10T16:57:52.726Z,100276.58
2019-03-10T17:00:23.392Z,100288.21
2019-03-10T17:02:52.202Z,100299.09
2019-03-10T17:05:22.585Z,100302.15
2019-03-10T17:07:50.930Z,100306.02
2019-03-10T17:10:23.208Z,100317.18
2019-03-10T17:12:51.854Z,100324.38
2019-03-10T17:15:24.289Z,100326.80
2019-03-10T17:17:52.707Z,100354.99
2019-03-10T17:20:21.051Z,100348.91
2019-03-10T17:22:49.601Z,100354.92
2019-03-10T17:25:18.054Z,100373.26
2019-03-10T17:27:46.611Z,100384.45
2019-03-10T17:30:22.172Z,100380.17
2019-03-10T17:32:50.606Z,100388.49
2019-03-10T17:35:19.805Z,100398.12
2019-03-10T17:37:49.130Z,100423.42
2019-03-10T17:40:19.621Z,100418.05
2019-03-10T17:42:48.153Z,100429.63
2019-03-10T17:45:23.981Z,100437.94
2019-03-10T17:47:52.149Z,100440.15
2019-03-10T17:50:20.659Z,100450.48
2019-03-10T17:52:49.819Z,100455.19
2019-03-10T17:55:20.404Z,100475.33
2019-03-10T17:57:48.579Z,100480.98
2019-03-10T18:00:22.932Z,100510.78
2019-03-10T18:02:51.214Z,100498.37
2019-03-10T18:05:19.417Z,100504.27
2019-03-10T18:07:47.631Z,100521.59
2019-03-10T18:10:17.210Z,100510.61
2019-03-10T18:12:45.439Z,100508.73
2019-03-10T18:15:17.655Z,100539.98
2019-03-10T18:17:45.926Z,100535.27
2019-03-10T18:20:22.489Z,100545.99
2019-03-10T18:22:51.067Z,100556.11
2019-03-10T18:25:19.542Z,100558.18
2019-03-10T18:27:47.788Z,100566.13
2019-03-10T18:30:28.241Z,100572.17
2019-03-10T18:32:56.422Z,100572.50
2019-03-10T18:35:24.622Z,100579.56
2019-03-10T18:37:52.815Z,100576.59
2019-03-10T18:40:25.086Z,100582.88
2019-03-10T18:42:53.287Z,100571.91
2019-03-10T18:45:21.534Z,100594.27
2019-03-10T18:47:49.751Z,100598.84
2019-03-10T18:50:23.123Z,100608.62
2019-03-10T18:52:51.339Z,100610.70
2019-03-10T18:55:20.073Z,100628.76
2019-03-10T18:57:48.298Z,100625.29
2019-03-10T19:00:24.451Z,100620.51
2019-03-10T19:02:52.797Z,100629.56
2019-03-10T19:05:21.028Z,100633.95
2019-03-10T19:07:49.224Z,100636.71
2019-03-10T19:10:17.468Z,100641.91
2019-03-10T19:12:45.649Z,100632.27
2019-03-10T19:15:24.792Z,100646.17
2019-03-10T19:17:53.067Z,100651.33
2019-03-10T19:20:21.259Z,100658.34
2019-03-10T19:22:49.442Z,100658.20
2019-03-10T19:25:19.480Z,100671.06
2019-03-10T19:27:47.669Z,100669.64
2019-03-10T19:30:22.625Z,100677.45
2019-03-10T19:32:51.114Z,100677.45
2019-03-10T19:35:19.702Z,100684.18
2019-03-10T19:37:47.928Z,100690.64
2019-03-10T19:40:20.238Z,100686.05
2019-03-10T19:42:48.710Z,100688.06
2019-03-10T19:45:18.333Z,100684.48
2019-03-10T19:47:46.503Z,100673.88
2019-03-10T19:50:20.233Z,100669.88
2019-03-10T19:52:48.393Z,100686.16
2019-03-10T19:55:16.571Z,100677.78
2019-03-10T19:57:44.742Z,100687.02
2019-03-10T20:00:16.004Z,100688.69
2019-03-10T20:02:44.326Z,100715.58
2019-03-10T20:05:12.957Z,100729.20
2019-03-10T20:07:41.115Z,100745.85
2019-03-10T20:10:17.466Z,100767.72
2019-03-10T20:12:45.942Z,100740.34
2019-03-10T20:15:24.464Z,100745.31
2019-03-10T20:17:52.655Z,100750.92
2019-03-10T20:20:23.365Z,100750.25
2019-03-10T20:22:51.546Z,100756.09
2019-03-10T20:25:19.763Z,100751.75
2019-03-10T20:27:47.946Z,100774.18
2019-03-10T20:30:19.202Z,100806.69
2019-03-10T20:32:47.456Z,100799.15
2019-03-10T20:35:15.760Z,100803.17
2019-03-10T20:37:43.987Z,100811.02
2019-03-10T20:40:16.964Z,100818.69
2019-03-10T20:42:45.121Z,100818.34
2019-03-10T20:45:14.458Z,100815.05
2019-03-10T20:47:42.714Z,100838.23
2019-03-10T20:50:16.094Z,100895.86
2019-03-10T20:52:44.330Z,100938.20
2019-03-10T20:55:13.449Z,100932.41
2019-03-10T21:00:42.926Z,100953.73
2019-03-10T21:03:13.404Z,100946.36
2019-03-10T21:05:41.652Z,100950.06
2019-03-10T21:08:09.844Z,100938.66
2019-03-10T21:10:38.022Z,100927.47
2019-03-10T21:13:06.243Z,100938.02
2019-03-10T21:15:34.438Z,100938.36
2019-03-10T21:18:02.635Z,100938.73
2019-03-10T21:20:30.903Z,100942.73
2019-03-10T21:22:59.158Z,100860.58
2019-03-10T21:25:31.345Z,100869.83
2019-03-10T21:27:59.004Z,100886.14
2019-03-10T21:30:33.921Z,100893.41
2019-03-10T21:33:03.676Z,100903.09
2019-03-10T21:35:33.318Z,100903.41
2019-03-10T21:38:01.871Z,100901.50
2019-03-10T21:40:32.285Z,100904.25
2019-03-10T21:43:00.486Z,100905.25
2019-03-10T21:45:29.043Z,100919.66
2019-03-10T21:47:57.229Z,100918.29
2019-03-10T21:50:25.412Z,100923.83
2019-03-10T21:52:53.605Z,100920.41
2019-03-10T21:55:21.775Z,100912.20
2019-03-10T21:57:49.967Z,100913.94
2019-03-10T22:00:21.144Z,100915.20
2019-03-10T22:02:49.381Z,100928.11
2019-03-10T22:05:18.408Z,100923.10
2019-03-10T22:07:46.606Z,100924.57
2019-03-10T22:10:26.109Z,100925.53
2019-03-10T22:12:46.400Z,100922.16
2019-03-10T22:15:16.590Z,100925.84
2019-03-10T22:17:44.767Z,100925.11
2019-03-10T22:20:17.109Z,100917.63
2019-03-10T22:22:49.373Z,100918.44
2019-03-10T22:25:15.675Z,100916.45
2019-03-10T22:27:45.859Z,100916.55
2019-03-10T22:30:18.373Z,100921.70
2019-03-10T22:32:46.545Z,100918.71
2019-03-10T22:35:14.739Z,100916.33
2019-03-10T22:37:42.932Z,100916.96
2019-03-10T22:40:13.206Z,100918.32
2019-03-10T22:42:41.410Z,100915.77
2019-03-10T22:45:15.512Z,100913.39
2019-03-10T22:47:44.069Z,100912.41
2019-03-10T22:50:13.994Z,100910.73
2019-03-10T22:52:42.239Z,100893.63
2019-03-10T22:55:15.610Z,100893.77
2019-03-10T22:57:43.852Z,100889.38
2019-03-10T23:00:43.257Z,100884.22
2019-03-10T23:03:11.821Z,100881.66
2019-03-10T23:05:41.643Z,100873.60
2019-03-10T23:08:10.236Z,100872.26
2019-03-10T23:10:38.470Z,100875.31
2019-03-10T23:13:06.647Z,100862.50
2019-03-10T23:15:34.834Z,100853.70
2019-03-10T23:18:03.310Z,100852.22
2019-03-10T23:20:31.483Z,100853.30
2019-03-10T23:22:59.666Z,100853.77
2019-03-10T23:25:27.842Z,100858.20
2019-03-10T23:27:56.037Z,100855.94
2019-03-10T23:30:24.203Z,100849.89
2019-03-10T23:32:52.481Z,100849.05
2019-03-10T23:35:20.681Z,100850.08
2019-03-10T23:37:49.209Z,100852.24
2019-03-10T23:40:18.913Z,100845.73
2019-03-10T23:42:47.494Z,100840.64
2019-03-10T23:45:19.457Z,100830.67
2019-03-10T23:47:47.696Z,100832.25
2019-03-10T23:50:17.237Z,100819.77
2019-03-10T23:52:45.423Z,100815.23
2019-03-10T23:55:14.129Z,100812.53
2019-03-10T23:57:42.321Z,100808.83
